メインページ
METAR-TAF:

METAR-TAF

空港 :

ナジャフ, イラク

緯度: 31-59-23N, 経度: 44-24-15E, 海抜: 31m

現時点の気象観測

当レポートは13分前の18:00(UTC)に作成
東/南東の風 7kt
気温 16°C
湿度 82%
気圧 1018 hPa
視程: 7000m
高度3000ftの雲は散在している

METAR: ORNI 171800Z 12007KT 7000 SCT030 16/13 Q1018 NOSIG

時間: 21:13 (18:13 UTC)

予報

当レポートは2時間13分前の16:00(UTC)に作成
予報は17日の 18時(UTC)から 18日の 18時(UTC)まで有効
西の風 10kt
視程: 8000m
高度2500ftの雲はほとんどない, 積乱雲.
高度3000ftの雲は散在している
18日の 03時(UTC)から 18日の 05時(UTC)まで徐々に

TAF: ORNI 171600Z 1718/1818 28010KT 8000 -TSSHRA FEW025CB SCT030 BECMG 1803/1805 NSC

4,000以上の空港の気象観測と天気予報(METAR報とTAF報)

利用可能な観測所は地図上に黄色い丸と赤い丸で示す。

丸の上にカーソルを重ねると観測所名を参照できる。

次にクリックすると気象観測と天気予報を参照できる。

マップの切り替え:黒色「×」印の緑ボタンをクリックして拡大、「-」印の緑ボタンをクリックして縮小、緑色の三角印をクリックして隣りの地図に切り替え


METAR-TAF: